Time,TemperatureF,DewpointF,PressureIn,WindDirection,WindDirectionDegrees,WindSpeedMPH,WindSpeedGustMPH,Humidity,HourlyPrecipIn,Conditions,Clouds,dailyrainin,SoftwareType,DateUTC
2013-03-24 00:01:00,18.0,-11.0,30.05,North,351,43.0,56.0,26,0.00,,,0.01,,2013-03-24 07:01:00,
2013-03-24 00:11:00,18.0,-11.0,30.05,North,351,43.0,56.0,26,0.00,,,0.01,,2013-03-24 07:11:00,
2013-03-24 00:22:00,18.0,-7.0,30.04,NNW,337,35.0,53.0,32,0.00,,,0.01,,2013-03-24 07:22:00,
2013-03-24 00:31:00,18.0,-7.0,30.05,NNW,338,38.0,53.0,32,0.00,,,0.01,,2013-03-24 07:31:00,
2013-03-24 00:52:00,18.0,-4.0,30.05,NNW,334,34.0,52.0,37,0.00,,,0.01,,2013-03-24 07:52:00,
2013-03-24 01:02:00,18.0,-4.0,30.06,NNW,348,30.0,45.0,37,0.00,,,0.01,,2013-03-24 08:02:00,
2013-03-24 01:11:00,18.0,-4.0,30.06,NNW,348,30.0,45.0,37,0.00,,,0.01,,2013-03-24 08:11:00,
2013-03-24 01:21:00,18.0,-4.0,30.06,NNW,337,28.0,53.0,36,0.00,,,0.01,,2013-03-24 08:21:00,
2013-03-24 01:31:00,18.0,-5.0,30.06,NNW,334,29.0,43.0,35,0.00,,,0.01,,2013-03-24 08:31:00,
2013-03-24 01:52:00,17.0,-5.0,30.07,NNW,333,29.0,48.0,37,0.00,,,0.01,,2013-03-24 08:52:00,
2013-03-24 02:01:00,17.0,-5.0,30.05,NNW,336,26.0,42.0,37,0.00,,,0.01,,2013-03-24 09:01:00,
2013-03-24 02:12:00,17.0,-5.0,30.05,NNW,336,26.0,42.0,37,0.00,,,0.01,,2013-03-24 09:12:00,
2013-03-24 02:21:00,17.0,-6.0,30.05,NNW,337,26.0,46.0,35,0.00,,,0.01,,2013-03-24 09:21:00,
2013-03-24 02:32:00,17.0,-5.0,30.05,NNW,333,24.0,42.0,36,0.00,,,0.01,,2013-03-24 09:32:00,
2013-03-24 02:52:00,17.0,-5.0,30.05,NNW,339,24.0,40.0,37,0.00,,,0.01,,2013-03-24 09:52:00,
2013-03-24 03:02:00,17.0,-4.0,30.05,NNW,332,22.0,48.0,39,0.00,,,0.01,,2013-03-24 10:02:00,
2013-03-24 03:12:00,17.0,-4.0,30.05,NNW,332,22.0,48.0,39,0.00,,,0.01,,2013-03-24 10:12:00,
2013-03-24 03:22:00,16.0,-4.0,30.04,NNW,327,22.0,36.0,40,0.00,,,0.01,,2013-03-24 10:22:00,
2013-03-24 03:32:00,16.0,-3.0,30.05,NNW,331,24.0,41.0,41,0.00,,,0.01,,2013-03-24 10:32:00,
2013-03-24 03:52:00,16.0,-3.0,30.05,NNW,334,23.0,42.0,42,0.00,,,0.01,,2013-03-24 10:52:00,
2013-03-24 04:02:00,16.0,-3.0,30.04,NNW,330,24.0,40.0,42,0.00,,,0.01,,2013-03-24 11:02:00,
2013-03-24 04:11:00,16.0,-3.0,30.04,NNW,330,24.0,40.0,42,0.00,,,0.01,,2013-03-24 11:11:00,
2013-03-24 04:21:00,16.0,-2.0,30.05,NNW,331,22.0,39.0,43,0.00,,,0.01,,2013-03-24 11:21:00,
2013-03-24 04:32:00,16.0,-3.0,30.05,NNW,329,24.0,37.0,42,0.00,,,0.01,,2013-03-24 11:32:00,
2013-03-24 04:52:00,16.0,-2.0,30.05,NNW,332,25.0,39.0,43,0.00,,,0.01,,2013-03-24 11:52:00,
2013-03-24 05:02:00,16.0,-2.0,30.05,NNW,335,28.0,39.0,43,0.00,,,0.01,,2013-03-24 12:02:00,
2013-03-24 05:11:00,16.0,-2.0,30.05,NNW,335,28.0,39.0,43,0.00,,,0.01,,2013-03-24 12:11:00,
2013-03-24 05:22:00,16.0,-2.0,30.05,NNW,336,26.0,45.0,44,0.00,,,0.01,,2013-03-24 12:22:00,
2013-03-24 05:32:00,16.0,-2.0,30.05,NNW,338,27.0,43.0,44,0.00,,,0.01,,2013-03-24 12:32:00,
2013-03-24 05:52:00,15.0,-3.0,30.05,NNW,334,29.0,45.0,44,0.00,,,0.01,,2013-03-24 12:52:00,
2013-03-24 06:02:00,15.0,-2.0,30.05,NNW,339,28.0,45.0,45,0.00,,,0.01,,2013-03-24 13:02:00,
2013-03-24 06:11:00,15.0,-2.0,30.05,NNW,339,28.0,45.0,45,0.00,,,0.01,,2013-03-24 13:11:00,
2013-03-24 06:22:00,16.0,2.0,30.06,NNW,337,35.0,50.0,52,0.00,,,0.01,,2013-03-24 13:22:00,
2013-03-24 06:31:00,16.0,2.0,30.05,NNW,338,28.0,45.0,52,0.00,,,0.01,,2013-03-24 13:31:00,
2013-03-24 06:52:00,15.0,3.0,30.06,NNW,343,27.0,46.0,58,0.00,,,0.01,,2013-03-24 13:52:00,
2013-03-24 07:01:00,16.0,5.0,30.04,North,349,36.0,52.0,61,0.00,,,0.01,,2013-03-24 14:01:00,
2013-03-24 07:11:00,16.0,5.0,30.04,North,349,36.0,52.0,61,0.00,,,0.01,,2013-03-24 14:11:00,
2013-03-24 07:21:00,16.0,6.0,30.05,NNW,342,38.0,54.0,64,0.00,,,0.01,,2013-03-24 14:21:00,
2013-03-24 07:32:00,15.0,4.0,30.06,NNW,343,33.0,46.0,61,0.00,,,0.01,,2013-03-24 14:32:00,
2013-03-24 07:52:00,16.0,6.0,30.05,NNW,343,34.0,48.0,65,0.00,,,0.01,,2013-03-24 14:52:00,
2013-03-24 08:01:00,16.0,7.0,30.04,NNW,346,36.0,51.0,66,0.00,,,0.01,,2013-03-24 15:01:00,
2013-03-24 08:11:00,16.0,7.0,30.04,NNW,346,36.0,51.0,66,0.00,,,0.01,,2013-03-24 15:11:00,
2013-03-24 08:22:00,16.0,7.0,30.06,NNW,342,34.0,50.0,66,0.00,,,0.01,,2013-03-24 15:22:00,
2013-03-24 08:32:00,16.0,7.0,30.06,NNW,340,33.0,47.0,66,0.00,,,0.00,,2013-03-24 15:32:00,
2013-03-24 08:53:00,17.0,7.0,30.05,North,350,30.0,46.0,65,0.00,,,0.00,,2013-03-24 15:53:00,
2013-03-24 09:02:00,17.0,7.0,30.08,NNW,339,30.0,43.0,64,0.00,,,0.00,,2013-03-24 16:02:00,
2013-03-24 09:12:00,17.0,7.0,30.08,NNW,339,30.0,43.0,64,0.00,,,0.00,,2013-03-24 16:12:00,
2013-03-24 09:33:00,18.0,-99.9,30.08,North,-999,-999.0,34.0,-999,0.00,,,0.00,,2013-03-24 16:33:00,
2013-03-24 09:43:00,18.0,-99.9,30.08,North,-999,-999.0,34.0,-999,0.00,,,0.00,,2013-03-24 16:43:00,
2013-03-24 09:52:00,19.0,5.0,30.09,NNW,343,31.0,42.0,53,0.00,,,0.00,,2013-03-24 16:52:00,
2013-03-24 10:02:00,20.0,4.0,30.12,NNW,339,26.0,45.0,49,0.00,,,0.00,,2013-03-24 17:02:00,
2013-03-24 10:12:00,20.0,4.0,30.12,NNW,339,26.0,45.0,49,0.00,,,0.00,,2013-03-24 17:12:00,
2013-03-24 10:22:00,20.0,3.0,30.12,NNW,341,27.0,36.0,46,0.00,,,0.00,,2013-03-24 17:22:00,
2013-03-24 10:31:00,20.0,2.0,30.13,NNW,338,18.0,28.0,45,0.00,,,0.00,,2013-03-24 17:31:00,
2013-03-24 10:42:00,20.0,2.0,30.13,NNW,338,18.0,28.0,45,0.00,,,0.00,,2013-03-24 17:42:00,
2013-03-24 10:52:00,20.0,2.0,30.10,NNW,336,22.0,33.0,45,0.00,,,0.00,,2013-03-24 17:52:00,
2013-03-24 11:01:00,21.0,2.0,30.12,NNW,337,22.0,37.0,43,0.00,,,0.00,,2013-03-24 18:01:00,
2013-03-24 11:11:00,21.0,2.0,30.12,NNW,337,22.0,37.0,43,0.00,,,0.00,,2013-03-24 18:11:00,
2013-03-24 11:21:00,22.0,4.0,30.12,NNW,334,14.0,35.0,46,0.00,,,0.00,,2013-03-24 18:21:00,
2013-03-24 11:31:00,22.0,4.0,30.13,NNW,337,18.0,42.0,46,0.00,,,0.00,,2013-03-24 18:31:00,
2013-03-24 11:42:00,22.0,4.0,30.13,NNW,337,18.0,42.0,46,0.00,,,0.00,,2013-03-24 18:42:00,
2013-03-24 11:52:00,22.0,3.0,30.13,NNW,332,19.0,36.0,43,0.00,,,0.00,,2013-03-24 18:52:00,
2013-03-24 12:02:00,23.0,4.0,30.14,NNW,336,19.0,26.0,44,0.00,,,0.00,,2013-03-24 19:02:00,
2013-03-24 12:11:00,23.0,4.0,30.14,NNW,336,19.0,26.0,44,0.00,,,0.00,,2013-03-24 19:11:00,
2013-03-24 12:22:00,23.0,5.0,30.13,NNW,328,15.0,28.0,45,0.00,,,0.00,,2013-03-24 19:22:00,
2013-03-24 12:31:00,23.0,3.0,30.13,NW,325,12.0,28.0,42,0.00,,,0.00,,2013-03-24 19:31:00,
2013-03-24 12:42:00,23.0,3.0,30.13,NW,325,12.0,28.0,42,0.00,,,0.00,,2013-03-24 19:42:00,
2013-03-24 12:52:00,24.0,3.0,30.13,NNW,332,13.0,32.0,40,0.00,,,0.00,,2013-03-24 19:52:00,
2013-03-24 13:02:00,24.0,2.0,30.13,NW,325,12.0,26.0,37,0.00,,,0.00,,2013-03-24 20:02:00,
2013-03-24 13:12:00,24.0,2.0,30.13,NW,325,12.0,26.0,37,0.00,,,0.00,,2013-03-24 20:12:00,
2013-03-24 13:21:00,25.0,1.0,30.13,NNW,327,12.0,25.0,35,0.00,,,0.00,,2013-03-24 20:21:00,
2013-03-24 13:31:00,25.0,1.0,30.13,NW,325,9.0,24.0,34,0.00,,,0.00,,2013-03-24 20:31:00,
2013-03-24 13:42:00,25.0,1.0,30.13,NW,325,9.0,24.0,34,0.00,,,0.00,,2013-03-24 20:42:00,
2013-03-24 13:53:00,26.0,2.0,30.12,NNW,331,10.0,25.0,34,0.00,,,0.00,,2013-03-24 20:53:00,
2013-03-24 14:02:00,26.0,2.0,30.11,NNW,330,11.0,23.0,35,0.00,,,0.00,,2013-03-24 21:02:00,
2013-03-24 14:11:00,26.0,2.0,30.11,NNW,330,11.0,23.0,35,0.00,,,0.00,,2013-03-24 21:11:00,
2013-03-24 14:22:00,25.0,0.0,30.11,NNW,329,12.0,26.0,33,0.00,,,0.00,,2013-03-24 21:22:00,
2013-03-24 14:32:00,26.0,0.0,30.11,NNW,327,10.0,25.0,31,0.00,,,0.00,,2013-03-24 21:32:00,
2013-03-24 14:42:00,26.0,0.0,30.11,NNW,327,10.0,25.0,31,0.00,,,0.00,,2013-03-24 21:42:00,
2013-03-24 14:53:00,25.0,-1.0,30.11,NNW,336,11.0,24.0,32,0.00,,,0.00,,2013-03-24 21:53:00,
2013-03-24 15:02:00,26.0,2.0,30.12,NW,321,10.0,21.0,34,0.00,,,0.00,,2013-03-24 22:02:00,
2013-03-24 15:12:00,26.0,2.0,30.12,NW,321,10.0,21.0,34,0.00,,,0.00,,2013-03-24 22:12:00,
2013-03-24 15:22:00,27.0,2.0,30.12,NW,318,9.0,28.0,33,0.00,,,0.00,,2013-03-24 22:22:00,
2013-03-24 15:32:00,27.0,3.0,30.12,WNW,295,11.0,21.0,35,0.00,,,0.00,,2013-03-24 22:32:00,
2013-03-24 15:42:00,27.0,3.0,30.12,WNW,295,11.0,21.0,35,0.00,,,0.00,,2013-03-24 22:42:00,
2013-03-24 15:52:00,28.0,5.0,30.12,NNW,329,7.0,23.0,37,0.00,,,0.00,,2013-03-24 22:52:00,
2013-03-24 16:02:00,27.0,4.0,30.13,NW,319,14.0,28.0,37,0.00,,,0.00,,2013-03-24 23:02:00,
2013-03-24 16:11:00,27.0,4.0,30.13,NW,319,14.0,28.0,37,0.00,,,0.00,,2013-03-24 23:11:00,
2013-03-24 16:22:00,27.0,5.0,30.13,NW,315,11.0,22.0,39,0.00,,,0.00,,2013-03-24 23:22:00,
2013-03-24 16:31:00,26.0,3.0,30.13,WNW,289,15.0,23.0,37,0.00,,,0.00,,2013-03-24 23:31:00,
2013-03-24 16:41:00,26.0,3.0,30.13,WNW,289,15.0,23.0,37,0.00,,,0.00,,2013-03-24 23:41:00,
2013-03-24 16:52:00,27.0,5.0,30.12,NW,307,12.0,24.0,39,0.00,,,0.00,,2013-03-24 23:52:00,
2013-03-24 17:01:00,27.0,5.0,30.12,NW,313,10.0,22.0,39,0.00,,,0.00,,2013-03-25 00:01:00,
2013-03-24 17:11:00,27.0,5.0,30.12,NW,313,10.0,22.0,39,0.00,,,0.00,,2013-03-25 00:11:00,
2013-03-24 17:22:00,28.0,6.0,30.11,NW,324,10.0,20.0,39,0.00,,,0.00,,2013-03-25 00:22:00,
2013-03-24 17:32:00,27.0,6.0,30.11,NW,321,11.0,25.0,40,0.00,,,0.00,,2013-03-25 00:32:00,
2013-03-24 17:42:00,27.0,6.0,30.11,NW,321,11.0,25.0,40,0.00,,,0.00,,2013-03-25 00:42:00,
2013-03-24 17:52:00,27.0,6.0,30.12,NNW,331,9.0,20.0,40,0.00,,,0.00,,2013-03-25 00:52:00,
2013-03-24 18:01:00,26.0,6.0,30.12,NW,316,6.0,25.0,42,0.00,,,0.00,,2013-03-25 01:01:00,
2013-03-24 18:11:00,26.0,6.0,30.12,NW,316,6.0,25.0,42,0.00,,,0.00,,2013-03-25 01:11:00,
2013-03-24 18:21:00,26.0,5.0,30.12,NNW,331,10.0,21.0,40,0.00,,,0.00,,2013-03-25 01:21:00,
2013-03-24 18:32:00,25.0,5.0,30.12,NW,312,8.0,21.0,41,0.00,,,0.00,,2013-03-25 01:32:00,
2013-03-24 18:42:00,25.0,5.0,30.12,NW,312,8.0,21.0,41,0.00,,,0.00,,2013-03-25 01:42:00,
2013-03-24 18:52:00,24.0,4.0,30.12,NW,324,12.0,21.0,42,0.00,,,0.00,,2013-03-25 01:52:00,
2013-03-24 19:01:00,23.0,4.0,30.11,NNW,328,10.0,21.0,43,0.00,,,0.00,,2013-03-25 02:01:00,
2013-03-24 19:11:00,23.0,4.0,30.11,NNW,328,10.0,21.0,43,0.00,,,0.00,,2013-03-25 02:11:00,
2013-03-24 19:22:00,22.0,3.0,30.11,NNW,329,10.0,19.0,44,0.00,,,0.00,,2013-03-25 02:22:00,
2013-03-24 19:31:00,21.0,2.0,30.11,NNW,331,14.0,22.0,43,0.00,,,0.00,,2013-03-25 02:31:00,
2013-03-24 19:42:00,21.0,2.0,30.11,NNW,331,14.0,22.0,43,0.00,,,0.00,,2013-03-25 02:42:00,
2013-03-24 19:52:00,21.0,2.0,30.11,WNW,291,14.0,22.0,43,0.00,,,0.00,,2013-03-25 02:52:00,
2013-03-24 20:01:00,20.0,1.0,30.11,NNW,331,14.0,23.0,42,0.00,,,0.00,,2013-03-25 03:01:00,
2013-03-24 20:11:00,20.0,1.0,30.11,NNW,331,14.0,23.0,42,0.00,,,0.00,,2013-03-25 03:11:00,
2013-03-24 20:22:00,20.0,0.0,30.11,NNW,329,18.0,26.0,41,0.00,,,0.00,,2013-03-25 03:22:00,
2013-03-24 20:32:00,20.0,0.0,30.11,NNW,336,20.0,31.0,40,0.00,,,0.00,,2013-03-25 03:32:00,
2013-03-24 20:42:00,20.0,0.0,30.11,NNW,333,20.0,32.0,40,0.00,,,0.00,,2013-03-25 03:42:00,
2013-03-24 20:53:00,20.0,0.0,30.11,NNW,333,20.0,32.0,40,0.00,,,0.00,,2013-03-25 03:53:00,
2013-03-24 21:02:00,20.0,-3.0,30.12,NNW,344,25.0,33.0,36,0.00,,,0.00,,2013-03-25 04:02:00,
2013-03-24 21:12:00,20.0,-3.0,30.12,NNW,344,25.0,33.0,36,0.00,,,0.00,,2013-03-25 04:12:00,
2013-03-24 21:22:00,20.0,-6.0,30.13,NNW,348,29.0,38.0,31,0.00,,,0.00,,2013-03-25 04:22:00,
2013-03-24 21:32:00,20.0,-4.0,30.14,NNW,346,20.0,33.0,33,0.00,,,0.00,,2013-03-25 04:32:00,
2013-03-24 21:42:00,20.0,-4.0,30.14,NNW,346,20.0,33.0,33,0.00,,,0.00,,2013-03-25 04:42:00,
2013-03-24 21:52:00,20.0,-3.0,30.15,NNW,339,15.0,26.0,35,0.00,,,0.00,,2013-03-25 04:52:00,
2013-03-24 22:02:00,20.0,-3.0,30.15,North,10,22.0,31.0,36,0.00,,,0.00,,2013-03-25 05:02:00,
2013-03-24 22:12:00,20.0,-3.0,30.15,North,10,22.0,31.0,36,0.00,,,0.00,,2013-03-25 05:12:00,
2013-03-24 22:21:00,21.0,-2.0,30.15,North,352,19.0,33.0,36,0.00,,,0.00,,2013-03-25 05:21:00,
2013-03-24 22:32:00,21.0,-2.0,30.16,North,352,17.0,26.0,36,0.00,,,0.00,,2013-03-25 05:32:00,
2013-03-24 22:42:00,21.0,-2.0,30.16,North,352,17.0,26.0,36,0.00,,,0.00,,2013-03-25 05:42:00,
2013-03-24 22:52:00,21.0,-1.0,30.16,North,351,18.0,26.0,37,0.00,,,0.00,,2013-03-25 05:52:00,
2013-03-24 23:01:00,21.0,2.0,30.15,NNW,341,16.0,29.0,42,0.00,,,0.00,,2013-03-25 06:01:00,
2013-03-24 23:11:00,21.0,2.0,30.15,NNW,341,16.0,29.0,42,0.00,,,0.00,,2013-03-25 06:11:00,
2013-03-24 23:21:00,21.0,-2.0,30.16,North,356,17.0,29.0,36,0.00,,,0.00,,2013-03-25 06:21:00,
2013-03-24 23:32:00,22.0,2.0,30.16,North,351,17.0,29.0,42,0.00,,,0.00,,2013-03-25 06:32:00,
2013-03-24 23:42:00,22.0,2.0,30.16,North,351,17.0,29.0,42,0.00,,,0.00,,2013-03-25 06:42:00,
2013-03-24 23:52:00,21.0,2.0,30.16,NNW,336,15.0,29.0,43,0.00,,,0.00,,2013-03-25 06:52:00,